createdAt,value
2018-12-05T00:02:53.496Z,13.70
2018-12-05T00:07:56.216Z,13.40
2018-12-05T00:12:59.083Z,7.73
2018-12-05T00:18:02.146Z,12.77
2018-12-05T00:23:04.941Z,10.50
2018-12-05T00:28:07.961Z,11.87
2018-12-05T00:33:10.757Z,10.97
2018-12-05T00:38:13.412Z,8.20
2018-12-05T00:43:33.269Z,9.80
2018-12-05T00:48:36.007Z,14.97
2018-12-05T00:53:38.761Z,7.27
2018-12-05T00:58:41.492Z,11.17
2018-12-05T01:03:44.404Z,12.07
2018-12-05T01:08:48.548Z,20.97
2018-12-05T01:13:51.764Z,7.50
2018-12-05T01:18:54.657Z,13.60
2018-12-05T01:23:57.674Z,11.23
2018-12-05T01:29:00.369Z,19.30
2018-12-05T01:34:03.645Z,11.33
2018-12-05T01:39:07.598Z,11.80
2018-12-05T01:44:10.639Z,16.43
2018-12-05T01:49:13.430Z,13.23
2018-12-05T01:54:17.127Z,13.00
2018-12-05T01:59:20.077Z,10.30
2018-12-05T02:04:22.937Z,11.37
2018-12-05T02:09:25.756Z,15.77
2018-12-05T02:14:28.785Z,16.37
2018-12-05T02:19:31.798Z,9.80
2018-12-05T02:24:34.713Z,13.27
2018-12-05T02:29:43.619Z,10.70
2018-12-05T02:34:46.484Z,16.17
2018-12-05T02:39:49.226Z,8.83
2018-12-05T02:44:52.064Z,18.40
2018-12-05T02:49:54.905Z,10.47
2018-12-05T02:54:57.676Z,8.87
2018-12-05T03:00:00.600Z,11.07
2018-12-05T03:05:04.405Z,11.87
2018-12-05T03:10:07.405Z,10.73
2018-12-05T03:15:10.201Z,15.50
2018-12-05T03:20:13.113Z,16.13
2018-12-05T03:25:15.996Z,11.13
2018-12-05T03:30:18.809Z,10.50
2018-12-05T03:35:26.210Z,24.10
2018-12-05T03:40:29.150Z,13.60
2018-12-05T03:45:31.970Z,13.03
2018-12-05T03:50:34.655Z,16.53
2018-12-05T03:55:37.612Z,9.63
2018-12-05T04:00:40.320Z,15.73
2018-12-05T04:05:43.122Z,16.80
2018-12-05T04:10:46.050Z,13.27
2018-12-05T04:15:50.305Z,15.77
2018-12-05T04:20:53.079Z,14.83
2018-12-05T04:25:55.772Z,11.87
2018-12-05T04:30:58.634Z,15.03
2018-12-05T04:36:03.449Z,19.67
2018-12-05T04:41:06.440Z,11.70
2018-12-05T04:46:09.357Z,23.73
2018-12-05T04:51:12.253Z,21.70
2018-12-05T04:56:15.086Z,16.67
2018-12-05T05:01:18.039Z,13.20
2018-12-05T05:06:20.838Z,16.17
2018-12-05T05:11:23.568Z,14.23
2018-12-05T05:16:26.418Z,22.37
2018-12-05T05:21:29.162Z,14.43
2018-12-05T05:26:32.116Z,13.37
2018-12-05T05:31:35.036Z,24.00
2018-12-05T05:36:37.788Z,23.57
2018-12-05T05:41:40.560Z,12.60
2018-12-05T05:46:44.604Z,18.60
2018-12-05T05:51:47.513Z,19.67
2018-12-05T05:56:50.536Z,18.43
2018-12-05T06:01:53.256Z,18.80
2018-12-05T06:06:56.005Z,23.03
2018-12-05T06:11:58.894Z,21.33
2018-12-05T06:17:01.737Z,21.77
2018-12-05T06:22:04.708Z,31.50
2018-12-05T06:27:07.537Z,24.47
2018-12-05T06:32:10.416Z,17.90
2018-12-05T06:37:12.997Z,23.77
2018-12-05T06:42:15.836Z,19.73
2018-12-05T06:47:18.640Z,23.77
2018-12-05T06:52:21.580Z,29.17
2018-12-05T06:57:24.513Z,22.93
2018-12-05T07:02:27.323Z,26.40
2018-12-05T07:07:30.193Z,24.20
2018-12-05T07:12:33.003Z,27.57
2018-12-05T07:17:35.998Z,24.40
2018-12-05T07:22:38.772Z,29.83
2018-12-05T07:27:41.495Z,24.90
2018-12-05T07:32:44.441Z,22.27
2018-12-05T07:37:47.349Z,31.10
2018-12-05T07:42:50.272Z,22.73
2018-12-05T07:47:53.301Z,28.33
2018-12-05T07:52:56.776Z,24.23
2018-12-05T07:57:59.605Z,26.60
2018-12-05T08:03:02.493Z,23.00
2018-12-05T08:08:06.205Z,18.77
2018-12-05T08:13:09.126Z,29.33
2018-12-05T08:18:11.825Z,31.77
2018-12-05T08:23:14.801Z,29.80
2018-12-05T08:28:17.721Z,28.83
2018-12-05T08:33:20.625Z,28.27
2018-12-05T08:38:23.351Z,26.80
2018-12-05T08:43:26.177Z,21.80
2018-12-05T08:48:29.277Z,23.07
2018-12-05T08:53:32.261Z,19.57
2018-12-05T08:58:35.373Z,24.23
2018-12-05T09:03:38.235Z,22.63
2018-12-05T09:08:41.285Z,18.13
2018-12-05T09:13:44.279Z,17.57
2018-12-05T09:18:47.173Z,19.43
2018-12-05T09:23:50.467Z,23.03
2018-12-05T09:28:57.252Z,17.73
2018-12-05T09:33:58.409Z,15.23
2018-12-05T09:39:01.408Z,17.27
2018-12-05T09:44:06.358Z,17.63
2018-12-05T09:49:09.368Z,17.90
2018-12-05T09:54:12.222Z,17.63
2018-12-05T09:59:15.303Z,17.17
2018-12-05T10:04:18.074Z,15.47
2018-12-05T10:09:20.997Z,14.03
2018-12-05T10:14:23.993Z,21.47
2018-12-05T10:19:27.317Z,19.67
2018-12-05T10:24:30.465Z,14.03
2018-12-05T10:29:33.504Z,16.17
2018-12-05T10:34:36.309Z,16.07
2018-12-05T10:39:39.275Z,14.23
2018-12-05T10:44:43.167Z,16.97
2018-12-05T10:49:47.082Z,19.57
2018-12-05T10:54:50.028Z,21.33
2018-12-05T10:59:52.753Z,17.03
2018-12-05T11:05:01.457Z,26.13
2018-12-05T11:10:10.402Z,13.87
2018-12-05T11:15:19.229Z,27.77
2018-12-05T11:20:28.236Z,16.17
2018-12-05T11:25:31.287Z,25.60
2018-12-05T11:30:34.473Z,18.97
2018-12-05T11:35:37.526Z,17.90
2018-12-05T11:40:40.577Z,17.40
2018-12-05T11:45:44.207Z,14.60
2018-12-05T11:50:47.092Z,12.07
2018-12-05T11:55:50.170Z,16.53
2018-12-05T12:00:53.030Z,21.30
2018-12-05T12:05:55.982Z,15.50
2018-12-05T12:11:00.859Z,14.53
2018-12-05T12:16:03.900Z,13.93
2018-12-05T12:21:06.837Z,11.53
2018-12-05T12:26:09.863Z,11.77
2018-12-05T12:31:12.747Z,15.70
2018-12-05T12:36:15.525Z,7.47
2018-12-05T12:41:18.408Z,9.10
2018-12-05T12:46:21.225Z,12.83
2018-12-05T12:51:24.201Z,10.53
2018-12-05T12:56:27.320Z,8.77
2018-12-05T13:01:30.268Z,12.97
2018-12-05T13:06:33.128Z,11.23
2018-12-05T13:11:36.018Z,11.43
2018-12-05T13:16:38.957Z,10.40
2018-12-05T13:21:41.861Z,8.17
2018-12-05T13:26:44.793Z,9.30
2018-12-05T13:31:47.721Z,11.40
2018-12-05T13:36:50.725Z,8.93
2018-12-05T13:41:53.869Z,13.23
2018-12-05T13:46:56.834Z,11.33
2018-12-05T13:52:01.257Z,7.20
2018-12-05T13:57:04.202Z,12.43
2018-12-05T14:02:07.734Z,8.87
2018-12-05T14:07:10.807Z,12.47
2018-12-05T14:12:19.651Z,9.40
2018-12-05T14:17:22.417Z,12.73
2018-12-05T14:22:25.308Z,17.40
2018-12-05T14:27:28.333Z,11.27
2018-12-05T14:32:31.281Z,17.83
2018-12-05T14:37:34.124Z,15.13
2018-12-05T14:42:37.002Z,16.93
2018-12-05T14:47:39.597Z,13.47
2018-12-05T14:52:42.259Z,16.80
2018-12-05T14:57:45.125Z,15.83
2018-12-05T15:02:47.816Z,24.17
2018-12-05T15:07:50.491Z,17.50
2018-12-05T15:12:53.211Z,14.57
2018-12-05T15:17:56.245Z,13.47
2018-12-05T15:22:59.015Z,16.07
2018-12-05T15:28:01.992Z,15.90
2018-12-05T15:33:05.307Z,12.43
2018-12-05T15:38:08.540Z,13.57
2018-12-05T15:43:11.386Z,19.33
2018-12-05T15:48:14.450Z,16.53
2018-12-05T15:53:17.204Z,19.47
2018-12-05T15:58:20.033Z,21.53
2018-12-05T16:03:22.901Z,14.30
2018-12-05T16:08:25.694Z,14.10
2018-12-05T16:13:28.773Z,15.93
2018-12-05T16:18:31.650Z,24.67
2018-12-05T16:23:34.374Z,16.03
2018-12-05T16:28:37.241Z,20.80
2018-12-05T16:33:40.372Z,17.40
2018-12-05T16:38:43.373Z,15.67
2018-12-05T16:43:46.347Z,10.27
2018-12-05T16:48:49.221Z,12.87
2018-12-05T16:53:52.167Z,18.60
2018-12-05T16:58:54.958Z,20.33
2018-12-05T17:03:57.994Z,19.43
2018-12-05T17:09:01.587Z,13.90
2018-12-05T17:14:06.533Z,17.67
2018-12-05T17:19:09.886Z,18.20
2018-12-05T17:24:12.649Z,19.57
2018-12-05T17:29:15.539Z,25.00
2018-12-05T17:34:18.512Z,16.70
2018-12-05T17:39:21.433Z,18.43
2018-12-05T17:44:24.383Z,20.43
2018-12-05T17:49:27.180Z,15.97
2018-12-05T17:54:29.980Z,16.77
2018-12-05T17:59:32.518Z,10.40
2018-12-05T18:04:35.310Z,25.30
2018-12-05T18:09:38.037Z,20.80
2018-12-05T18:14:41.055Z,16.90
2018-12-05T18:19:44.280Z,25.07
2018-12-05T18:24:47.786Z,24.77
2018-12-05T18:29:50.333Z,20.77
2018-12-05T18:34:53.132Z,20.53
2018-12-05T18:39:55.797Z,22.37
2018-12-05T18:44:58.520Z,21.73
2018-12-05T18:50:01.309Z,19.53
2018-12-05T18:55:04.777Z,26.93
2018-12-05T19:00:10.178Z,31.43
2018-12-05T19:05:13.224Z,29.90
2018-12-05T19:10:15.948Z,23.40
2018-12-05T19:15:19.262Z,32.07
2018-12-05T19:20:22.103Z,30.90
2018-12-05T19:25:25.073Z,22.83
2018-12-05T19:30:27.860Z,28.80
2018-12-05T19:35:30.596Z,21.17
2018-12-05T19:40:33.266Z,22.20
2018-12-05T19:45:36.177Z,21.27
2018-12-05T19:50:39.114Z,19.00
2018-12-05T19:55:41.908Z,23.00
2018-12-05T20:00:44.793Z,20.67
2018-12-05T20:05:47.775Z,23.43
2018-12-05T20:10:50.577Z,21.30
2018-12-05T20:15:53.477Z,20.80
2018-12-05T20:20:56.260Z,22.70
2018-12-05T20:25:58.997Z,16.03
2018-12-05T20:31:01.992Z,18.90
2018-12-05T20:36:05.089Z,13.37
2018-12-05T20:41:08.149Z,21.07
2018-12-05T20:46:11.069Z,16.30
2018-12-05T20:51:14.351Z,16.20
2018-12-05T20:56:17.196Z,16.60
2018-12-05T21:01:20.090Z,13.90
2018-12-05T21:06:23.064Z,20.23
2018-12-05T21:11:26.913Z,17.07
2018-12-05T21:16:29.799Z,13.93
2018-12-05T21:21:32.717Z,16.70
2018-12-05T21:26:35.392Z,15.80
2018-12-05T21:31:38.033Z,16.83
2018-12-05T21:36:40.815Z,13.40
2018-12-05T21:41:43.809Z,14.97
2018-12-05T21:46:46.486Z,19.30
2018-12-05T21:51:49.241Z,17.57
2018-12-05T21:56:52.080Z,12.77
2018-12-05T22:01:54.965Z,13.93
2018-12-05T22:06:57.747Z,22.53
2018-12-05T22:12:00.460Z,20.97
2018-12-05T22:17:03.304Z,18.60
2018-12-05T22:22:06.050Z,17.27
2018-12-05T22:27:08.961Z,15.83
2018-12-05T22:32:11.665Z,13.73
2018-12-05T22:37:14.402Z,15.07
2018-12-05T22:42:17.056Z,14.10
2018-12-05T22:47:20.008Z,14.83
2018-12-05T22:52:22.921Z,14.70
2018-12-05T22:57:25.663Z,16.37
2018-12-05T23:02:28.542Z,17.03
2018-12-05T23:07:31.337Z,16.63
2018-12-05T23:12:34.406Z,20.47
2018-12-05T23:17:37.377Z,14.03
2018-12-05T23:22:40.171Z,16.00
2018-12-05T23:27:42.800Z,18.10
2018-12-05T23:32:45.773Z,14.33
2018-12-05T23:37:48.602Z,18.83
2018-12-05T23:42:51.613Z,14.67
2018-12-05T23:47:54.381Z,17.50
2018-12-05T23:52:58.349Z,15.37
2018-12-05T23:58:01.113Z,14.87
